sensor_id;sensor_type;location;lat;lon;timestamp;P1;durP1;ratioP1;P2;durP2;ratioP2
63112;SDS011;49206;48.020;21.378;2024-02-26T00:00:22;43.60;;;28.85;;
63112;SDS011;49206;48.020;21.378;2024-02-26T00:01:26;44.85;;;27.60;;
63112;SDS011;49206;48.020;21.378;2024-02-26T00:02:29;43.53;;;27.33;;
63112;SDS011;49206;48.020;21.378;2024-02-26T00:04:38;42.25;;;26.65;;
63112;SDS011;49206;48.020;21.378;2024-02-26T00:05:40;45.97;;;28.70;;
63112;SDS011;49206;48.020;21.378;2024-02-26T00:06:43;45.30;;;29.40;;
63112;SDS011;49206;48.020;21.378;2024-02-26T00:07:46;42.20;;;28.30;;
63112;SDS011;49206;48.020;21.378;2024-02-26T00:08:49;43.95;;;27.58;;
63112;SDS011;49206;48.020;21.378;2024-02-26T00:09:52;46.35;;;29.73;;
63112;SDS011;49206;48.020;21.378;2024-02-26T00:10:54;44.33;;;27.92;;
63112;SDS011;49206;48.020;21.378;2024-02-26T00:11:57;40.90;;;26.52;;
63112;SDS011;49206;48.020;21.378;2024-02-26T00:13:01;39.90;;;26.17;;
63112;SDS011;49206;48.020;21.378;2024-02-26T00:14:04;42.92;;;27.83;;
63112;SDS011;49206;48.020;21.378;2024-02-26T00:15:07;43.78;;;27.77;;
63112;SDS011;49206;48.020;21.378;2024-02-26T00:16:11;45.10;;;27.75;;
63112;SDS011;49206;48.020;21.378;2024-02-26T00:17:14;43.63;;;28.23;;
63112;SDS011;49206;48.020;21.378;2024-02-26T00:18:17;41.78;;;28.58;;
63112;SDS011;49206;48.020;21.378;2024-02-26T00:19:20;40.03;;;26.13;;
63112;SDS011;49206;48.020;21.378;2024-02-26T00:20:22;44.05;;;26.77;;
63112;SDS011;49206;48.020;21.378;2024-02-26T00:21:25;42.50;;;27.73;;
63112;SDS011;49206;48.020;21.378;2024-02-26T00:22:28;42.63;;;26.98;;
63112;SDS011;49206;48.020;21.378;2024-02-26T00:23:31;43.53;;;26.98;;
63112;SDS011;49206;48.020;21.378;2024-02-26T00:24:34;43.20;;;27.70;;
63112;SDS011;49206;48.020;21.378;2024-02-26T00:25:37;45.22;;;27.33;;
63112;SDS011;49206;48.020;21.378;2024-02-26T00:26:41;45.08;;;29.00;;
63112;SDS011;49206;48.020;21.378;2024-02-26T00:27:44;41.92;;;28.08;;
63112;SDS011;49206;48.020;21.378;2024-02-26T00:28:46;45.63;;;28.67;;
63112;SDS011;49206;48.020;21.378;2024-02-26T00:29:49;45.75;;;28.65;;
63112;SDS011;49206;48.020;21.378;2024-02-26T00:30:51;45.20;;;27.50;;
63112;SDS011;49206;48.020;21.378;2024-02-26T00:31:58;42.35;;;27.35;;
63112;SDS011;49206;48.020;21.378;2024-02-26T00:33:01;42.42;;;28.58;;
63112;SDS011;49206;48.020;21.378;2024-02-26T00:34:03;37.78;;;25.13;;
63112;SDS011;49206;48.020;21.378;2024-02-26T00:35:07;41.85;;;27.15;;
63112;SDS011;49206;48.020;21.378;2024-02-26T00:36:12;39.10;;;25.67;;
63112;SDS011;49206;48.020;21.378;2024-02-26T00:37:15;39.42;;;25.02;;
63112;SDS011;49206;48.020;21.378;2024-02-26T00:38:19;41.75;;;25.95;;
63112;SDS011;49206;48.020;21.378;2024-02-26T00:39:22;42.30;;;26.13;;
63112;SDS011;49206;48.020;21.378;2024-02-26T00:40:25;39.38;;;26.08;;
63112;SDS011;49206;48.020;21.378;2024-02-26T00:41:29;42.17;;;27.33;;
63112;SDS011;49206;48.020;21.378;2024-02-26T00:42:32;41.22;;;25.73;;
63112;SDS011;49206;48.020;21.378;2024-02-26T00:43:35;40.40;;;25.52;;
63112;SDS011;49206;48.020;21.378;2024-02-26T00:44:40;39.70;;;25.58;;
63112;SDS011;49206;48.020;21.378;2024-02-26T00:45:44;41.20;;;27.15;;
63112;SDS011;49206;48.020;21.378;2024-02-26T00:46:49;39.58;;;25.27;;
63112;SDS011;49206;48.020;21.378;2024-02-26T00:47:51;37.72;;;25.55;;
63112;SDS011;49206;48.020;21.378;2024-02-26T00:48:54;41.55;;;28.10;;
63112;SDS011;49206;48.020;21.378;2024-02-26T00:49:57;39.75;;;26.40;;
63112;SDS011;49206;48.020;21.378;2024-02-26T00:51:00;39.33;;;26.73;;
63112;SDS011;49206;48.020;21.378;2024-02-26T00:52:03;41.47;;;26.40;;
63112;SDS011;49206;48.020;21.378;2024-02-26T00:53:08;39.38;;;26.27;;
63112;SDS011;49206;48.020;21.378;2024-02-26T00:54:11;42.05;;;26.98;;
63112;SDS011;49206;48.020;21.378;2024-02-26T00:55:13;42.72;;;28.95;;
63112;SDS011;49206;48.020;21.378;2024-02-26T00:56:16;40.42;;;26.10;;
63112;SDS011;49206;48.020;21.378;2024-02-26T00:57:19;43.67;;;26.85;;
63112;SDS011;49206;48.020;21.378;2024-02-26T00:58:22;43.55;;;27.92;;
63112;SDS011;49206;48.020;21.378;2024-02-26T00:59:25;41.30;;;26.55;;
63112;SDS011;49206;48.020;21.378;2024-02-26T01:00:28;43.38;;;26.95;;
63112;SDS011;49206;48.020;21.378;2024-02-26T01:01:30;46.40;;;27.55;;
63112;SDS011;49206;48.020;21.378;2024-02-26T01:02:34;47.05;;;29.83;;
63112;SDS011;49206;48.020;21.378;2024-02-26T01:03:37;46.97;;;28.85;;
63112;SDS011;49206;48.020;21.378;2024-02-26T01:04:40;44.08;;;27.08;;
63112;SDS011;49206;48.020;21.378;2024-02-26T01:05:42;43.25;;;26.60;;
63112;SDS011;49206;48.020;21.378;2024-02-26T01:06:45;44.42;;;27.75;;
63112;SDS011;49206;48.020;21.378;2024-02-26T01:07:49;41.15;;;27.65;;
63112;SDS011;49206;48.020;21.378;2024-02-26T01:08:51;41.40;;;27.10;;
63112;SDS011;49206;48.020;21.378;2024-02-26T01:09:54;42.05;;;27.33;;
63112;SDS011;49206;48.020;21.378;2024-02-26T01:10:57;44.00;;;28.58;;
63112;SDS011;49206;48.020;21.378;2024-02-26T01:11:59;42.40;;;26.48;;
63112;SDS011;49206;48.020;21.378;2024-02-26T01:13:02;41.83;;;27.33;;
63112;SDS011;49206;48.020;21.378;2024-02-26T01:14:05;41.63;;;26.35;;
63112;SDS011;49206;48.020;21.378;2024-02-26T01:15:08;42.03;;;25.48;;
63112;SDS011;49206;48.020;21.378;2024-02-26T01:16:12;39.53;;;27.10;;
63112;SDS011;49206;48.020;21.378;2024-02-26T01:17:15;40.88;;;26.60;;
63112;SDS011;49206;48.020;21.378;2024-02-26T01:18:18;44.72;;;27.63;;
63112;SDS011;49206;48.020;21.378;2024-02-26T01:19:21;48.90;;;30.05;;
63112;SDS011;49206;48.020;21.378;2024-02-26T01:20:24;44.92;;;28.08;;
63112;SDS011;49206;48.020;21.378;2024-02-26T01:21:27;46.33;;;28.40;;
63112;SDS011;49206;48.020;21.378;2024-02-26T01:22:31;42.83;;;27.83;;
63112;SDS011;49206;48.020;21.378;2024-02-26T01:23:34;44.03;;;28.13;;
63112;SDS011;49206;48.020;21.378;2024-02-26T01:24:37;46.85;;;29.05;;
63112;SDS011;49206;48.020;21.378;2024-02-26T01:25:40;47.08;;;29.73;;
63112;SDS011;49206;48.020;21.378;2024-02-26T01:26:45;51.83;;;32.00;;
63112;SDS011;49206;48.020;21.378;2024-02-26T01:27:48;51.25;;;30.98;;
63112;SDS011;49206;48.020;21.378;2024-02-26T01:28:51;47.00;;;29.75;;
63112;SDS011;49206;48.020;21.378;2024-02-26T01:29:54;48.85;;;29.45;;
63112;SDS011;49206;48.020;21.378;2024-02-26T01:30:57;45.70;;;28.58;;
63112;SDS011;49206;48.020;21.378;2024-02-26T01:32:00;45.00;;;29.17;;
63112;SDS011;49206;48.020;21.378;2024-02-26T01:33:03;47.65;;;28.90;;
63112;SDS011;49206;48.020;21.378;2024-02-26T01:34:06;43.33;;;27.15;;
63112;SDS011;49206;48.020;21.378;2024-02-26T01:35:09;49.17;;;29.10;;
63112;SDS011;49206;48.020;21.378;2024-02-26T01:36:14;45.53;;;28.73;;
63112;SDS011;49206;48.020;21.378;2024-02-26T01:37:17;43.80;;;27.55;;
63112;SDS011;49206;48.020;21.378;2024-02-26T01:38:19;49.88;;;30.67;;
63112;SDS011;49206;48.020;21.378;2024-02-26T01:39:22;48.85;;;29.88;;
63112;SDS011;49206;48.020;21.378;2024-02-26T01:40:28;51.40;;;30.90;;
63112;SDS011;49206;48.020;21.378;2024-02-26T01:41:32;49.80;;;30.45;;
63112;SDS011;49206;48.020;21.378;2024-02-26T01:42:35;48.92;;;30.58;;
63112;SDS011;49206;48.020;21.378;2024-02-26T01:43:41;45.67;;;28.02;;
63112;SDS011;49206;48.020;21.378;2024-02-26T01:44:44;44.50;;;27.48;;
63112;SDS011;49206;48.020;21.378;2024-02-26T01:45:47;42.05;;;27.73;;
63112;SDS011;49206;48.020;21.378;2024-02-26T01:46:50;43.75;;;27.98;;
63112;SDS011;49206;48.020;21.378;2024-02-26T01:47:53;43.22;;;27.75;;
63112;SDS011;49206;48.020;21.378;2024-02-26T01:48:57;46.97;;;28.17;;
63112;SDS011;49206;48.020;21.378;2024-02-26T01:50:00;44.58;;;28.33;;
63112;SDS011;49206;48.020;21.378;2024-02-26T01:51:03;44.58;;;28.13;;
63112;SDS011;49206;48.020;21.378;2024-02-26T01:52:06;44.65;;;27.98;;
63112;SDS011;49206;48.020;21.378;2024-02-26T01:53:10;43.50;;;27.27;;
63112;SDS011;49206;48.020;21.378;2024-02-26T01:54:13;43.40;;;26.40;;
63112;SDS011;49206;48.020;21.378;2024-02-26T01:55:17;45.10;;;27.33;;
63112;SDS011;49206;48.020;21.378;2024-02-26T01:56:20;43.20;;;26.17;;
63112;SDS011;49206;48.020;21.378;2024-02-26T01:57:24;40.65;;;26.48;;
63112;SDS011;49206;48.020;21.378;2024-02-26T01:58:27;41.17;;;26.15;;
63112;SDS011;49206;48.020;21.378;2024-02-26T01:59:30;41.47;;;26.88;;
63112;SDS011;49206;48.020;21.378;2024-02-26T02:00:34;44.15;;;27.77;;
63112;SDS011;49206;48.020;21.378;2024-02-26T02:01:38;45.40;;;27.00;;
63112;SDS011;49206;48.020;21.378;2024-02-26T02:02:42;41.55;;;25.27;;
63112;SDS011;49206;48.020;21.378;2024-02-26T02:03:47;41.47;;;26.05;;
63112;SDS011;49206;48.020;21.378;2024-02-26T02:04:50;40.58;;;26.23;;
63112;SDS011;49206;48.020;21.378;2024-02-26T02:05:52;41.83;;;26.80;;
63112;SDS011;49206;48.020;21.378;2024-02-26T02:06:55;41.58;;;25.08;;
63112;SDS011;49206;48.020;21.378;2024-02-26T02:08:00;42.15;;;26.02;;
63112;SDS011;49206;48.020;21.378;2024-02-26T02:09:02;43.53;;;26.23;;
63112;SDS011;49206;48.020;21.378;2024-02-26T02:10:09;39.53;;;24.80;;
63112;SDS011;49206;48.020;21.378;2024-02-26T02:11:12;42.47;;;24.38;;
63112;SDS011;49206;48.020;21.378;2024-02-26T02:12:14;40.17;;;24.45;;
63112;SDS011;49206;48.020;21.378;2024-02-26T02:13:18;43.72;;;25.35;;
63112;SDS011;49206;48.020;21.378;2024-02-26T02:14:21;40.53;;;25.10;;
63112;SDS011;49206;48.020;21.378;2024-02-26T02:15:23;44.00;;;26.80;;
63112;SDS011;49206;48.020;21.378;2024-02-26T02:16:26;40.53;;;26.85;;
63112;SDS011;49206;48.020;21.378;2024-02-26T02:17:30;40.50;;;24.77;;
63112;SDS011;49206;48.020;21.378;2024-02-26T02:18:33;41.78;;;25.23;;
63112;SDS011;49206;48.020;21.378;2024-02-26T02:19:36;41.00;;;24.20;;
63112;SDS011;49206;48.020;21.378;2024-02-26T02:20:38;42.42;;;26.15;;
63112;SDS011;49206;48.020;21.378;2024-02-26T02:21:41;43.17;;;26.08;;
63112;SDS011;49206;48.020;21.378;2024-02-26T02:22:47;39.33;;;25.75;;
63112;SDS011;49206;48.020;21.378;2024-02-26T02:23:50;41.78;;;25.55;;
63112;SDS011;49206;48.020;21.378;2024-02-26T02:24:52;41.40;;;24.80;;
63112;SDS011;49206;48.020;21.378;2024-02-26T02:25:56;39.60;;;24.60;;
63112;SDS011;49206;48.020;21.378;2024-02-26T02:27:01;43.50;;;26.33;;
63112;SDS011;49206;48.020;21.378;2024-02-26T02:28:03;39.17;;;25.73;;
63112;SDS011;49206;48.020;21.378;2024-02-26T02:29:07;41.35;;;26.58;;
63112;SDS011;49206;48.020;21.378;2024-02-26T02:30:12;42.78;;;26.27;;
63112;SDS011;49206;48.020;21.378;2024-02-26T02:31:15;41.38;;;26.23;;
63112;SDS011;49206;48.020;21.378;2024-02-26T02:32:18;44.95;;;26.70;;
63112;SDS011;49206;48.020;21.378;2024-02-26T02:33:21;43.00;;;28.00;;
63112;SDS011;49206;48.020;21.378;2024-02-26T02:35:28;43.22;;;26.13;;
63112;SDS011;49206;48.020;21.378;2024-02-26T02:36:31;44.30;;;26.70;;
63112;SDS011;49206;48.020;21.378;2024-02-26T02:37:34;43.83;;;27.52;;
63112;SDS011;49206;48.020;21.378;2024-02-26T02:38:37;46.28;;;27.88;;
63112;SDS011;49206;48.020;21.378;2024-02-26T02:39:40;43.65;;;27.08;;
63112;SDS011;49206;48.020;21.378;2024-02-26T02:40:45;47.20;;;27.23;;
63112;SDS011;49206;48.020;21.378;2024-02-26T02:41:48;43.25;;;27.33;;
63112;SDS011;49206;48.020;21.378;2024-02-26T02:42:51;42.05;;;27.05;;
63112;SDS011;49206;48.020;21.378;2024-02-26T02:43:54;42.83;;;26.52;;
63112;SDS011;49206;48.020;21.378;2024-02-26T02:44:57;43.08;;;26.55;;
63112;SDS011;49206;48.020;21.378;2024-02-26T02:46:00;41.60;;;26.65;;
63112;SDS011;49206;48.020;21.378;2024-02-26T02:47:04;47.88;;;27.27;;
63112;SDS011;49206;48.020;21.378;2024-02-26T02:48:07;41.45;;;26.25;;
63112;SDS011;49206;48.020;21.378;2024-02-26T02:49:10;40.90;;;25.80;;
63112;SDS011;49206;48.020;21.378;2024-02-26T02:50:13;45.65;;;29.00;;
63112;SDS011;49206;48.020;21.378;2024-02-26T02:51:16;43.85;;;27.05;;
63112;SDS011;49206;48.020;21.378;2024-02-26T02:52:18;41.15;;;26.65;;
63112;SDS011;49206;48.020;21.378;2024-02-26T02:53:21;43.10;;;28.00;;
63112;SDS011;49206;48.020;21.378;2024-02-26T02:54:24;43.30;;;26.67;;
63112;SDS011;49206;48.020;21.378;2024-02-26T02:55:27;46.45;;;27.35;;
63112;SDS011;49206;48.020;21.378;2024-02-26T02:56:30;43.05;;;26.85;;
63112;SDS011;49206;48.020;21.378;2024-02-26T02:57:33;46.67;;;27.33;;
63112;SDS011;49206;48.020;21.378;2024-02-26T02:58:35;44.15;;;27.75;;
63112;SDS011;49206;48.020;21.378;2024-02-26T02:59:39;42.25;;;26.92;;
63112;SDS011;49206;48.020;21.378;2024-02-26T03:00:43;41.80;;;25.88;;
63112;SDS011;49206;48.020;21.378;2024-02-26T03:01:46;44.88;;;27.02;;
63112;SDS011;49206;48.020;21.378;2024-02-26T03:02:49;40.80;;;25.40;;
63112;SDS011;49206;48.020;21.378;2024-02-26T03:03:52;43.67;;;26.55;;
63112;SDS011;49206;48.020;21.378;2024-02-26T03:04:55;44.17;;;26.15;;
63112;SDS011;49206;48.020;21.378;2024-02-26T03:05:58;46.88;;;28.10;;
63112;SDS011;49206;48.020;21.378;2024-02-26T03:07:01;44.95;;;27.23;;
63112;SDS011;49206;48.020;21.378;2024-02-26T03:08:04;45.17;;;26.70;;
63112;SDS011;49206;48.020;21.378;2024-02-26T03:09:07;44.53;;;27.88;;
63112;SDS011;49206;48.020;21.378;2024-02-26T03:10:10;42.35;;;26.38;;
63112;SDS011;49206;48.020;21.378;2024-02-26T03:11:13;43.75;;;26.70;;
63112;SDS011;49206;48.020;21.378;2024-02-26T03:12:17;43.47;;;25.98;;
63112;SDS011;49206;48.020;21.378;2024-02-26T03:13:21;44.30;;;28.33;;
63112;SDS011;49206;48.020;21.378;2024-02-26T03:14:24;41.58;;;25.35;;
63112;SDS011;49206;48.020;21.378;2024-02-26T03:15:27;43.90;;;27.40;;
63112;SDS011;49206;48.020;21.378;2024-02-26T03:16:30;43.72;;;26.25;;
63112;SDS011;49206;48.020;21.378;2024-02-26T03:17:33;44.92;;;28.92;;
63112;SDS011;49206;48.020;21.378;2024-02-26T03:18:38;46.10;;;28.38;;
63112;SDS011;49206;48.020;21.378;2024-02-26T03:19:46;49.58;;;28.98;;
63112;SDS011;49206;48.020;21.378;2024-02-26T03:20:50;47.38;;;27.10;;
63112;SDS011;49206;48.020;21.378;2024-02-26T03:21:52;49.83;;;28.92;;
63112;SDS011;49206;48.020;21.378;2024-02-26T03:22:55;48.22;;;29.10;;
63112;SDS011;49206;48.020;21.378;2024-02-26T03:23:58;47.72;;;28.92;;
63112;SDS011;49206;48.020;21.378;2024-02-26T03:25:01;47.35;;;27.05;;
63112;SDS011;49206;48.020;21.378;2024-02-26T03:26:04;47.55;;;27.90;;
63112;SDS011;49206;48.020;21.378;2024-02-26T03:27:07;47.40;;;27.75;;
63112;SDS011;49206;48.020;21.378;2024-02-26T03:28:12;45.50;;;26.98;;
63112;SDS011;49206;48.020;21.378;2024-02-26T03:29:15;46.42;;;29.65;;
63112;SDS011;49206;48.020;21.378;2024-02-26T03:30:17;49.13;;;27.80;;
63112;SDS011;49206;48.020;21.378;2024-02-26T03:31:20;48.78;;;28.42;;
63112;SDS011;49206;48.020;21.378;2024-02-26T03:32:23;43.92;;;26.85;;
63112;SDS011;49206;48.020;21.378;2024-02-26T03:33:26;45.13;;;27.25;;
63112;SDS011;49206;48.020;21.378;2024-02-26T03:34:29;42.92;;;27.10;;
63112;SDS011;49206;48.020;21.378;2024-02-26T03:35:33;44.90;;;26.95;;
63112;SDS011;49206;48.020;21.378;2024-02-26T03:36:36;44.95;;;26.30;;
63112;SDS011;49206;48.020;21.378;2024-02-26T03:37:39;43.28;;;26.55;;
63112;SDS011;49206;48.020;21.378;2024-02-26T03:38:42;42.72;;;25.55;;
63112;SDS011;49206;48.020;21.378;2024-02-26T03:39:44;42.03;;;26.30;;
63112;SDS011;49206;48.020;21.378;2024-02-26T03:40:47;43.58;;;27.80;;
63112;SDS011;49206;48.020;21.378;2024-02-26T03:41:50;42.70;;;25.13;;
63112;SDS011;49206;48.020;21.378;2024-02-26T03:42:54;41.47;;;26.15;;
63112;SDS011;49206;48.020;21.378;2024-02-26T03:43:59;44.17;;;26.55;;
63112;SDS011;49206;48.020;21.378;2024-02-26T03:45:02;47.95;;;28.00;;
63112;SDS011;49206;48.020;21.378;2024-02-26T03:46:08;41.00;;;27.25;;
63112;SDS011;49206;48.020;21.378;2024-02-26T03:47:12;44.72;;;26.63;;
63112;SDS011;49206;48.020;21.378;2024-02-26T03:48:14;45.53;;;27.88;;
63112;SDS011;49206;48.020;21.378;2024-02-26T03:49:17;45.00;;;27.40;;
63112;SDS011;49206;48.020;21.378;2024-02-26T03:50:20;52.83;;;30.85;;
63112;SDS011;49206;48.020;21.378;2024-02-26T03:51:23;51.70;;;30.38;;
63112;SDS011;49206;48.020;21.378;2024-02-26T03:52:26;54.70;;;31.23;;
63112;SDS011;49206;48.020;21.378;2024-02-26T03:53:29;53.08;;;31.75;;
63112;SDS011;49206;48.020;21.378;2024-02-26T03:54:31;50.15;;;30.55;;
63112;SDS011;49206;48.020;21.378;2024-02-26T03:55:34;53.80;;;32.83;;
63112;SDS011;49206;48.020;21.378;2024-02-26T03:56:37;53.20;;;32.65;;
63112;SDS011;49206;48.020;21.378;2024-02-26T03:57:40;52.80;;;31.88;;
63112;SDS011;49206;48.020;21.378;2024-02-26T03:58:42;52.50;;;30.80;;
63112;SDS011;49206;48.020;21.378;2024-02-26T03:59:45;49.17;;;30.45;;
63112;SDS011;49206;48.020;21.378;2024-02-26T04:00:48;53.15;;;31.88;;
63112;SDS011;49206;48.020;21.378;2024-02-26T04:01:51;54.63;;;32.22;;
63112;SDS011;49206;48.020;21.378;2024-02-26T04:02:53;50.83;;;30.48;;
63112;SDS011;49206;48.020;21.378;2024-02-26T04:03:56;52.95;;;31.25;;
63112;SDS011;49206;48.020;21.378;2024-02-26T04:04:59;57.95;;;32.17;;
63112;SDS011;49206;48.020;21.378;2024-02-26T04:06:02;54.15;;;32.00;;
63112;SDS011;49206;48.020;21.378;2024-02-26T04:07:05;53.67;;;29.33;;
63112;SDS011;49206;48.020;21.378;2024-02-26T04:08:08;57.60;;;30.75;;
63112;SDS011;49206;48.020;21.378;2024-02-26T04:10:18;55.08;;;31.55;;
63112;SDS011;49206;48.020;21.378;2024-02-26T04:11:21;51.47;;;30.02;;
63112;SDS011;49206;48.020;21.378;2024-02-26T04:12:24;51.65;;;30.67;;
63112;SDS011;49206;48.020;21.378;2024-02-26T04:13:27;50.08;;;29.08;;
63112;SDS011;49206;48.020;21.378;2024-02-26T04:14:30;57.83;;;32.95;;
63112;SDS011;49206;48.020;21.378;2024-02-26T04:15:32;55.83;;;30.17;;
63112;SDS011;49206;48.020;21.378;2024-02-26T04:16:37;50.38;;;27.92;;
63112;SDS011;49206;48.020;21.378;2024-02-26T04:17:39;49.25;;;29.63;;
63112;SDS011;49206;48.020;21.378;2024-02-26T04:18:42;48.97;;;27.90;;
63112;SDS011;49206;48.020;21.378;2024-02-26T04:19:45;50.30;;;29.60;;
63112;SDS011;49206;48.020;21.378;2024-02-26T04:20:47;49.40;;;28.75;;
63112;SDS011;49206;48.020;21.378;2024-02-26T04:21:50;46.05;;;25.92;;
63112;SDS011;49206;48.020;21.378;2024-02-26T04:22:53;42.65;;;27.33;;
63112;SDS011;49206;48.020;21.378;2024-02-26T04:23:56;42.85;;;27.08;;
63112;SDS011;49206;48.020;21.378;2024-02-26T04:25:03;43.75;;;25.85;;
63112;SDS011;49206;48.020;21.378;2024-02-26T04:26:06;40.83;;;25.48;;
63112;SDS011;49206;48.020;21.378;2024-02-26T04:27:09;41.85;;;24.63;;
63112;SDS011;49206;48.020;21.378;2024-02-26T04:28:12;44.28;;;26.52;;
63112;SDS011;49206;48.020;21.378;2024-02-26T04:29:15;40.03;;;24.73;;
63112;SDS011;49206;48.020;21.378;2024-02-26T04:30:17;38.33;;;23.50;;
63112;SDS011;49206;48.020;21.378;2024-02-26T04:31:21;39.85;;;24.33;;
63112;SDS011;49206;48.020;21.378;2024-02-26T04:32:24;40.58;;;23.42;;
63112;SDS011;49206;48.020;21.378;2024-02-26T04:33:27;39.33;;;23.30;;
63112;SDS011;49206;48.020;21.378;2024-02-26T04:34:32;36.30;;;22.85;;
63112;SDS011;49206;48.020;21.378;2024-02-26T04:35:36;38.40;;;23.13;;
63112;SDS011;49206;48.020;21.378;2024-02-26T04:36:38;36.55;;;22.17;;
63112;SDS011;49206;48.020;21.378;2024-02-26T04:37:41;32.72;;;21.48;;
63112;SDS011;49206;48.020;21.378;2024-02-26T04:38:44;36.20;;;24.42;;
63112;SDS011;49206;48.020;21.378;2024-02-26T04:39:46;36.80;;;22.85;;
63112;SDS011;49206;48.020;21.378;2024-02-26T04:40:52;36.28;;;23.45;;
63112;SDS011;49206;48.020;21.378;2024-02-26T04:41:54;36.60;;;23.15;;
63112;SDS011;49206;48.020;21.378;2024-02-26T04:42:57;33.65;;;21.77;;
63112;SDS011;49206;48.020;21.378;2024-02-26T04:44:00;34.65;;;21.35;;
63112;SDS011;49206;48.020;21.378;2024-02-26T04:45:02;34.90;;;21.50;;
63112;SDS011;49206;48.020;21.378;2024-02-26T04:46:05;36.30;;;22.40;;
63112;SDS011;49206;48.020;21.378;2024-02-26T04:47:08;35.22;;;21.42;;
63112;SDS011;49206;48.020;21.378;2024-02-26T04:48:11;33.63;;;21.02;;
63112;SDS011;49206;48.020;21.378;2024-02-26T04:49:13;33.83;;;21.10;;
63112;SDS011;49206;48.020;21.378;2024-02-26T04:50:16;35.22;;;22.02;;
63112;SDS011;49206;48.020;21.378;2024-02-26T04:51:19;39.30;;;24.25;;
63112;SDS011;49206;48.020;21.378;2024-02-26T04:52:22;36.72;;;23.63;;
63112;SDS011;49206;48.020;21.378;2024-02-26T04:53:24;40.20;;;25.83;;
63112;SDS011;49206;48.020;21.378;2024-02-26T04:54:27;45.30;;;29.10;;
63112;SDS011;49206;48.020;21.378;2024-02-26T04:55:30;46.00;;;28.67;;
63112;SDS011;49206;48.020;21.378;2024-02-26T04:56:33;46.53;;;29.33;;
63112;SDS011;49206;48.020;21.378;2024-02-26T04:57:36;42.28;;;26.42;;
63112;SDS011;49206;48.020;21.378;2024-02-26T04:58:38;42.33;;;26.08;;
63112;SDS011;49206;48.020;21.378;2024-02-26T04:59:42;44.83;;;25.60;;
63112;SDS011;49206;48.020;21.378;2024-02-26T05:00:44;56.63;;;32.30;;
63112;SDS011;49206;48.020;21.378;2024-02-26T05:01:47;74.85;;;39.08;;
63112;SDS011;49206;48.020;21.378;2024-02-26T05:02:50;98.90;;;51.58;;
63112;SDS011;49206;48.020;21.378;2024-02-26T05:03:53;121.55;;;59.63;;
63112;SDS011;49206;48.020;21.378;2024-02-26T05:04:56;107.97;;;58.45;;
63112;SDS011;49206;48.020;21.378;2024-02-26T05:06:00;138.70;;;63.13;;
63112;SDS011;49206;48.020;21.378;2024-02-26T05:07:03;124.20;;;58.08;;
63112;SDS011;49206;48.020;21.378;2024-02-26T05:08:07;107.28;;;51.75;;
63112;SDS011;49206;48.020;21.378;2024-02-26T05:09:09;64.93;;;34.40;;
63112;SDS011;49206;48.020;21.378;2024-02-26T05:10:12;41.50;;;24.23;;
63112;SDS011;49206;48.020;21.378;2024-02-26T05:11:15;46.60;;;27.15;;
63112;SDS011;49206;48.020;21.378;2024-02-26T05:12:19;46.05;;;27.40;;
63112;SDS011;49206;48.020;21.378;2024-02-26T05:13:22;50.15;;;28.67;;
63112;SDS011;49206;48.020;21.378;2024-02-26T05:14:24;48.00;;;29.75;;
63112;SDS011;49206;48.020;21.378;2024-02-26T05:15:27;50.80;;;31.10;;
63112;SDS011;49206;48.020;21.378;2024-02-26T05:16:30;48.33;;;32.20;;
63112;SDS011;49206;48.020;21.378;2024-02-26T05:17:33;52.38;;;29.27;;
63112;SDS011;49206;48.020;21.378;2024-02-26T05:18:36;37.80;;;24.08;;
63112;SDS011;49206;48.020;21.378;2024-02-26T05:19:39;45.95;;;26.80;;
63112;SDS011;49206;48.020;21.378;2024-02-26T05:20:42;42.60;;;25.75;;
63112;SDS011;49206;48.020;21.378;2024-02-26T05:21:45;42.53;;;26.05;;
63112;SDS011;49206;48.020;21.378;2024-02-26T05:22:52;41.33;;;24.42;;
63112;SDS011;49206;48.020;21.378;2024-02-26T05:23:54;40.78;;;25.10;;
63112;SDS011;49206;48.020;21.378;2024-02-26T05:25:00;42.88;;;25.70;;
63112;SDS011;49206;48.020;21.378;2024-02-26T05:26:02;44.67;;;28.35;;
63112;SDS011;49206;48.020;21.378;2024-02-26T05:27:05;47.03;;;29.77;;
63112;SDS011;49206;48.020;21.378;2024-02-26T05:28:09;56.58;;;33.83;;
63112;SDS011;49206;48.020;21.378;2024-02-26T05:29:14;66.97;;;37.30;;
63112;SDS011;49206;48.020;21.378;2024-02-26T05:30:20;77.28;;;42.92;;
63112;SDS011;49206;48.020;21.378;2024-02-26T05:31:23;83.00;;;46.53;;
63112;SDS011;49206;48.020;21.378;2024-02-26T05:32:26;81.07;;;47.05;;
63112;SDS011;49206;48.020;21.378;2024-02-26T05:33:28;67.93;;;38.88;;
63112;SDS011;49206;48.020;21.378;2024-02-26T05:34:31;55.92;;;32.72;;
63112;SDS011;49206;48.020;21.378;2024-02-26T05:35:36;53.97;;;33.00;;
63112;SDS011;49206;48.020;21.378;2024-02-26T05:36:43;46.42;;;30.27;;
63112;SDS011;49206;48.020;21.378;2024-02-26T05:37:46;48.85;;;30.48;;
63112;SDS011;49206;48.020;21.378;2024-02-26T05:38:48;49.72;;;31.25;;
63112;SDS011;49206;48.020;21.378;2024-02-26T05:39:51;50.33;;;31.27;;
63112;SDS011;49206;48.020;21.378;2024-02-26T05:40:54;48.20;;;30.00;;
63112;SDS011;49206;48.020;21.378;2024-02-26T05:41:58;44.10;;;27.35;;
63112;SDS011;49206;48.020;21.378;2024-02-26T05:43:01;43.38;;;27.55;;
63112;SDS011;49206;48.020;21.378;2024-02-26T05:44:04;45.30;;;28.52;;
63112;SDS011;49206;48.020;21.378;2024-02-26T05:45:07;44.80;;;28.33;;
63112;SDS011;49206;48.020;21.378;2024-02-26T05:46:10;45.67;;;27.50;;
63112;SDS011;49206;48.020;21.378;2024-02-26T05:47:13;42.35;;;26.70;;
63112;SDS011;49206;48.020;21.378;2024-02-26T05:48:19;49.10;;;29.15;;
63112;SDS011;49206;48.020;21.378;2024-02-26T05:49:22;48.55;;;30.45;;
63112;SDS011;49206;48.020;21.378;2024-02-26T05:50:25;47.50;;;28.98;;
63112;SDS011;49206;48.020;21.378;2024-02-26T05:51:29;58.53;;;35.40;;
63112;SDS011;49206;48.020;21.378;2024-02-26T05:52:32;59.70;;;36.80;;
63112;SDS011;49206;48.020;21.378;2024-02-26T05:53:35;57.35;;;34.35;;
63112;SDS011;49206;48.020;21.378;2024-02-26T05:54:39;57.80;;;34.15;;
63112;SDS011;49206;48.020;21.378;2024-02-26T05:55:43;59.03;;;35.17;;
63112;SDS011;49206;48.020;21.378;2024-02-26T05:56:45;71.25;;;41.88;;
63112;SDS011;49206;48.020;21.378;2024-02-26T05:57:48;59.40;;;37.42;;
63112;SDS011;49206;48.020;21.378;2024-02-26T05:59:58;57.25;;;35.67;;
63112;SDS011;49206;48.020;21.378;2024-02-26T06:01:12;53.97;;;34.35;;
63112;SDS011;49206;48.020;21.378;2024-02-26T06:02:15;51.40;;;32.05;;
63112;SDS011;49206;48.020;21.378;2024-02-26T06:03:17;47.85;;;31.08;;
63112;SDS011;49206;48.020;21.378;2024-02-26T06:04:20;51.33;;;32.20;;
63112;SDS011;49206;48.020;21.378;2024-02-26T06:05:23;44.03;;;28.50;;
63112;SDS011;49206;48.020;21.378;2024-02-26T06:06:26;42.63;;;28.63;;
63112;SDS011;49206;48.020;21.378;2024-02-26T06:07:29;43.35;;;29.35;;
63112;SDS011;49206;48.020;21.378;2024-02-26T06:08:31;43.33;;;29.02;;